Time;durP1;ratioP1;P1;durP2;ratioP2;P2;SDS_P1;SDS_P2;PMS_P1;PMS_P2;Temp;Humidity;BMP_temperature;BMP_pressure;BME280_temperature;BME280_humidity;BME280_pressure;Samples;Min_cycle;Max_cycle;Signal;HPM_P1;HPM_P2
2022/10/05 00:00:49;;;;;;;4.07;1.50;;;11.30;99.90;;;;;;5026807;28;20045;-74
2022/10/05 00:03:15;;;;;;;3.65;2.28;;;11.20;99.90;;;;;;5041418;28;20100;-74
2022/10/05 00:05:43;;;;;;;2.65;1.70;;;11.20;99.90;;;;;;5046413;28;20115;-74
2022/10/05 00:08:09;;;;;;;3.97;1.60;;;11.20;99.90;;;;;;5038909;28;20033;-74
2022/10/05 00:10:35;;;;;;;5.43;2.15;;;11.10;99.90;;;;;;5037622;28;20032;-74
2022/10/05 00:13:00;;;;;;;4.00;1.90;;;11.20;99.90;;;;;;5047642;28;20112;-74
2022/10/05 00:15:26;;;;;;;3.03;2.10;;;11.20;99.90;;;;;;5047658;28;20051;-75
2022/10/05 00:17:51;;;;;;;3.80;1.80;;;11.10;99.90;;;;;;5040102;28;20504;-74
2022/10/05 00:20:25;;;;;;;2.63;1.95;;;11.00;99.90;;;;;;5038035;28;20400;-75
2022/10/05 00:22:56;;;;;;;3.67;1.88;;;11.00;99.90;;;;;;5050881;28;20033;-74
2022/10/05 00:25:23;;;;;;;3.83;1.80;;;11.00;99.90;;;;;;5047581;28;20017;-74
2022/10/05 00:27:54;;;;;;;4.75;2.00;;;11.10;99.90;;;;;;5041586;28;20040;-73
2022/10/05 00:30:21;;;;;;;5.68;2.83;;;11.10;99.90;;;;;;5042137;28;20163;-74
2022/10/05 00:32:47;;;;;;;4.13;1.90;;;11.10;99.90;;;;;;5037182;28;20038;-74
2022/10/05 00:35:14;;;;;;;3.25;1.80;;;11.10;99.90;;;;;;5050603;28;20039;-73
2022/10/05 00:37:40;;;;;;;2.53;1.92;;;11.10;99.90;;;;;;5050516;28;20045;-74
2022/10/05 00:40:43;;;;;;;3.13;2.00;;;11.10;99.90;;;;;;5051491;28;20087;-75
2022/10/05 00:43:19;;;;;;;2.85;1.90;;;11.10;99.90;;;;;;5050735;28;20060;-74
2022/10/05 00:45:50;;;;;;;3.95;2.20;;;11.10;99.90;;;;;;5046369;28;20028;-74
2022/10/05 00:48:18;;;;;;;4.93;2.03;;;11.00;99.90;;;;;;5038696;28;20029;-74
2022/10/05 00:51:16;;;;;;;3.28;1.80;;;11.00;99.90;;;;;;5037014;28;20028;-74
2022/10/05 00:54:08;;;;;;;3.30;2.05;;;11.00;99.90;;;;;;5043666;28;20037;-75
2022/10/05 00:57:00;;;;;;;3.45;2.03;;;10.90;99.90;;;;;;5046154;28;20461;-74
2022/10/05 00:59:41;;;;;;;4.13;1.90;;;11.00;99.90;;;;;;5045221;28;20033;-74
2022/10/05 01:02:43;;;;;;;2.17;1.67;;;11.10;99.90;;;;;;5041943;28;20361;-74
2022/10/05 01:05:32;;;;;;;3.80;2.17;;;11.10;99.90;;;;;;5049600;28;20041;-74
2022/10/05 01:08:21;;;;;;;2.55;2.05;;;11.20;99.90;;;;;;5047823;28;20064;-74
2022/10/05 01:11:12;;;;;;;4.07;1.52;;;11.20;99.90;;;;;;5047740;28;20112;-74
2022/10/05 01:13:49;;;;;;;3.72;2.30;;;11.20;99.90;;;;;;5034177;28;20033;-75
2022/10/05 01:16:30;;;;;;;4.60;2.25;;;11.30;99.90;;;;;;5038160;28;20487;-74
2022/10/05 01:19:04;;;;;;;3.33;2.10;;;11.30;99.90;;;;;;5041713;28;20021;-75
2022/10/05 01:21:35;;;;;;;4.78;2.03;;;11.20;99.90;;;;;;5045461;28;20066;-75
2022/10/05 01:24:37;;;;;;;3.45;2.03;;;11.20;99.90;;;;;;5040320;28;20021;-74
2022/10/05 01:27:36;;;;;;;2.28;1.70;;;11.20;99.90;;;;;;5045946;28;20037;-74
2022/10/05 01:30:19;;;;;;;2.45;1.83;;;11.20;99.90;;;;;;5042970;28;20045;-74
2022/10/05 01:33:02;;;;;;;2.00;1.60;;;11.20;99.90;;;;;;5038999;28;20120;-74
2022/10/05 01:35:56;;;;;;;2.88;1.83;;;11.10;99.90;;;;;;5045920;28;20029;-74
2022/10/05 01:38:43;;;;;;;6.25;2.13;;;11.10;99.90;;;;;;5039323;28;20073;-74
2022/10/05 01:41:18;;;;;;;3.47;1.65;;;11.10;99.90;;;;;;5047895;28;20036;-74
2022/10/05 01:44:06;;;;;;;2.63;1.70;;;11.00;99.90;;;;;;5046660;28;20037;-74
2022/10/05 01:46:53;;;;;;;4.18;1.85;;;10.90;99.90;;;;;;5049329;28;20041;-74
2022/10/05 01:49:39;;;;;;;11.75;2.15;;;10.80;99.90;;;;;;5044191;28;20033;-75
2022/10/05 01:52:11;;;;;;;3.83;2.13;;;10.70;99.90;;;;;;5047283;28;20063;-74
2022/10/05 01:55:00;;;;;;;2.60;1.80;;;10.70;99.90;;;;;;5037844;28;20412;-74
2022/10/05 01:57:38;;;;;;;5.65;2.08;;;10.60;99.90;;;;;;5048822;28;20037;-74
2022/10/05 02:00:08;;;;;;;5.60;2.05;;;10.50;99.90;;;;;;5045347;28;20025;-74
2022/10/05 02:02:40;;;;;;;2.38;1.70;;;10.50;99.90;;;;;;5040617;28;20025;-75
2022/10/05 02:05:17;;;;;;;3.47;1.98;;;10.50;99.90;;;;;;5043091;28;20992;-73
2022/10/05 02:07:51;;;;;;;2.95;1.90;;;10.50;99.90;;;;;;5045443;28;20021;-72
2022/10/05 02:10:25;;;;;;;2.95;1.52;;;10.50;99.90;;;;;;5037398;28;20137;-73
2022/10/05 02:13:08;;;;;;;1.75;1.65;;;10.50;99.90;;;;;;5042590;28;20029;-73
2022/10/05 02:15:40;;;;;;;3.53;1.90;;;10.50;99.90;;;;;;5043839;28;20037;-73
2022/10/05 02:18:28;;;;;;;2.72;1.90;;;10.50;99.90;;;;;;5047078;28;20025;-72
2022/10/05 02:20:57;;;;;;;4.40;1.95;;;10.30;99.90;;;;;;5043585;28;20037;-73
2022/10/05 02:23:26;;;;;;;4.60;2.10;;;10.20;99.90;;;;;;5047139;28;20029;-73
2022/10/05 02:25:54;;;;;;;2.72;1.67;;;10.30;99.90;;;;;;5042054;28;20032;-72
2022/10/05 02:28:25;;;;;;;3.13;2.00;;;10.30;99.90;;;;;;5044719;28;20387;-72
2022/10/05 02:30:57;;;;;;;3.53;1.90;;;10.30;99.90;;;;;;5039303;28;20049;-72
2022/10/05 02:33:28;;;;;;;2.55;1.77;;;10.30;99.90;;;;;;5041134;28;20135;-72
2022/10/05 02:35:59;;;;;;;8.55;3.60;;;10.20;99.90;;;;;;5035381;28;20033;-72
2022/10/05 02:38:32;;;;;;;2.70;1.77;;;10.30;99.90;;;;;;5036082;28;20384;-72
2022/10/05 02:41:26;;;;;;;2.70;1.67;;;10.20;99.90;;;;;;5045331;28;20082;-72
2022/10/05 02:44:25;;;;;;;2.45;1.60;;;10.20;99.90;;;;;;5040699;28;20496;-72
2022/10/05 02:47:10;;;;;;;4.30;2.20;;;10.10;99.90;;;;;;5037754;28;20033;-73
2022/10/05 02:49:43;;;;;;;3.22;1.92;;;10.00;99.90;;;;;;5037797;28;20480;-72
2022/10/05 02:52:19;;;;;;;2.33;1.73;;;10.00;99.90;;;;;;5042593;28;20522;-72
2022/10/05 02:55:09;;;;;;;3.08;1.70;;;10.10;99.90;;;;;;5039151;28;20039;-73
2022/10/05 02:58:07;;;;;;;3.13;2.08;;;10.00;99.90;;;;;;5042074;28;20169;-73
2022/10/05 03:00:41;;;;;;;5.20;1.77;;;10.10;99.90;;;;;;5041274;28;20029;-73
2022/10/05 03:03:28;;;;;;;4.30;2.08;;;10.10;99.90;;;;;;5042221;28;20036;-73
2022/10/05 03:06:04;;;;;;;2.92;2.10;;;10.20;99.90;;;;;;5033921;28;20028;-73
2022/10/05 03:08:54;;;;;;;4.93;2.00;;;10.30;99.90;;;;;;5040127;28;20024;-73
2022/10/05 03:11:28;;;;;;;3.90;1.90;;;10.30;99.90;;;;;;5040992;28;20455;-74
2022/10/05 03:13:58;;;;;;;10.27;1.88;;;10.40;99.90;;;;;;5043409;28;20104;-73
2022/10/05 03:16:45;;;;;;;4.10;2.30;;;10.40;99.90;;;;;;5036334;28;20116;-74
2022/10/05 03:19:35;;;;;;;7.38;2.20;;;10.40;99.90;;;;;;5041391;28;20079;-74
2022/10/05 03:22:36;;;;;;;2.80;2.38;;;10.50;99.90;;;;;;5032314;28;20400;-74
2022/10/05 03:25:26;;;;;;;4.10;1.90;;;10.60;99.90;;;;;;5023778;28;20041;-74
2022/10/05 03:28:09;;;;;;;4.22;2.08;;;10.60;99.90;;;;;;5046364;28;20283;-74
2022/10/05 03:30:45;;;;;;;4.28;1.60;;;10.70;99.90;;;;;;5037901;28;20447;-74
2022/10/05 03:33:29;;;;;;;3.97;2.20;;;10.80;99.90;;;;;;5033525;28;20033;-74
2022/10/05 03:36:20;;;;;;;2.00;1.73;;;10.70;99.90;;;;;;5029588;28;20044;-74
2022/10/05 03:39:07;;;;;;;4.40;2.00;;;10.60;99.90;;;;;;5046173;28;20020;-74
2022/10/05 03:41:44;;;;;;;5.57;1.73;;;10.60;99.90;;;;;;5058137;28;20052;-74
2022/10/05 03:44:16;;;;;;;4.05;1.95;;;10.60;99.90;;;;;;5045693;28;20021;-74
2022/10/05 03:46:55;;;;;;;5.00;2.00;;;10.70;99.90;;;;;;5050068;28;20029;-74
2022/10/05 03:49:48;;;;;;;4.05;1.98;;;10.70;99.90;;;;;;5036795;28;20500;-74
2022/10/05 03:52:20;;;;;;;3.22;2.00;;;10.70;99.90;;;;;;5045512;28;20044;-74
2022/10/05 03:54:50;;;;;;;5.00;1.80;;;10.70;99.90;;;;;;5051378;28;20044;-74
2022/10/05 03:57:20;;;;;;;5.50;2.30;;;10.70;99.90;;;;;;5046694;28;20040;-74
2022/10/05 04:00:16;;;;;;;5.75;2.53;;;10.60;99.90;;;;;;5042518;28;20397;-74
2022/10/05 04:03:08;;;;;;;3.30;1.90;;;10.80;99.90;;;;;;5042793;28;20439;-74
2022/10/05 04:05:50;;;;;;;1.58;1.48;;;10.80;99.90;;;;;;5044388;28;20045;-74
2022/10/05 04:08:23;;;;;;;2.95;1.77;;;10.80;99.90;;;;;;5044242;28;20112;-74
2022/10/05 04:10:51;;;;;;;4.05;1.92;;;10.80;99.90;;;;;;5045805;28;20038;-74
2022/10/05 04:13:38;;;;;;;4.55;2.22;;;10.80;99.90;;;;;;5048191;28;20020;-73
2022/10/05 04:16:23;;;;;;;4.65;2.22;;;10.80;99.90;;;;;;5048825;28;20036;-73
2022/10/05 04:19:01;;;;;;;2.63;1.60;;;10.90;99.90;;;;;;5046216;28;20407;-74
2022/10/05 04:21:29;;;;;;;4.95;1.80;;;10.80;99.90;;;;;;5045327;28;20017;-75
2022/10/05 04:24:14;;;;;;;3.60;2.03;;;10.80;99.90;;;;;;5045772;28;20083;-75
2022/10/05 04:26:48;;;;;;;4.95;1.88;;;10.70;99.90;;;;;;5040763;28;20067;-75
2022/10/05 04:29:37;;;;;;;4.10;2.33;;;10.80;99.90;;;;;;5043639;28;20538;-73
2022/10/05 04:32:10;;;;;;;3.63;2.10;;;10.90;99.90;;;;;;5040913;28;20060;-73
2022/10/05 04:34:53;;;;;;;5.13;1.92;;;10.90;99.90;;;;;;5042565;28;20025;-74
2022/10/05 04:37:44;;;;;;;2.55;1.90;;;10.90;99.90;;;;;;5039308;28;20450;-75
2022/10/05 04:40:28;;;;;;;2.78;1.67;;;10.80;99.90;;;;;;5048975;28;20032;-74
2022/10/05 04:43:20;;;;;;;4.30;1.70;;;10.80;99.90;;;;;;5042760;28;20040;-75
2022/10/05 04:46:12;;;;;;;3.67;2.03;;;10.80;99.90;;;;;;5042523;28;20036;-74
2022/10/05 04:48:59;;;;;;;2.65;1.95;;;10.70;99.90;;;;;;5043117;28;20052;-74
2022/10/05 04:51:39;;;;;;;3.70;1.85;;;10.70;99.90;;;;;;5042026;28;20033;-73
2022/10/05 04:54:26;;;;;;;2.30;1.60;;;10.60;99.90;;;;;;5039490;28;20099;-74
2022/10/05 04:56:57;;;;;;;3.25;1.88;;;10.60;99.90;;;;;;5024432;28;20036;-75
2022/10/05 04:59:41;;;;;;;4.50;1.85;;;10.40;99.90;;;;;;5035681;28;20413;-74
2022/10/05 05:02:29;;;;;;;5.72;2.05;;;10.50;99.90;;;;;;5037402;28;20028;-75
2022/10/05 05:05:23;;;;;;;5.32;2.38;;;10.60;99.90;;;;;;5039613;28;20537;-76
2022/10/05 05:08:04;;;;;;;2.88;1.73;;;10.70;99.90;;;;;;5038651;28;20139;-75
2022/10/05 05:10:57;;;;;;;2.75;1.63;;;10.80;99.90;;;;;;5037220;28;20075;-76
2022/10/05 05:13:56;;;;;;;3.90;1.83;;;10.80;99.90;;;;;;5038137;28;20128;-76
2022/10/05 05:16:37;;;;;;;3.38;1.88;;;10.70;99.90;;;;;;5037918;28;20258;-76
2022/10/05 05:19:05;;;;;;;3.35;1.95;;;10.60;99.90;;;;;;5037821;28;20439;-76
2022/10/05 05:21:46;;;;;;;3.97;1.83;;;10.70;99.90;;;;;;5036539;28;20112;-76
2022/10/05 05:24:17;;;;;;;3.42;2.20;;;10.50;99.90;;;;;;5038352;28;20495;-76
2022/10/05 05:27:09;;;;;;;3.97;1.95;;;10.60;99.90;;;;;;5037792;28;20115;-75
2022/10/05 05:29:42;;;;;;;3.33;1.60;;;10.60;99.90;;;;;;5038308;28;20025;-76
2022/10/05 05:32:16;;;;;;;3.67;2.03;;;10.50;99.90;;;;;;5037716;28;20084;-75
2022/10/05 05:35:13;;;;;;;3.53;1.65;;;10.60;99.90;;;;;;5038746;28;20080;-76
2022/10/05 05:37:55;;;;;;;4.32;2.03;;;10.70;99.90;;;;;;5036491;28;20040;-75
2022/10/05 05:40:32;;;;;;;2.88;1.83;;;10.70;99.90;;;;;;5038380;28;20503;-75
2022/10/05 05:43:19;;;;;;;3.97;1.92;;;10.80;99.90;;;;;;5037389;28;20025;-75
2022/10/05 05:46:04;;;;;;;3.25;1.85;;;10.70;99.90;;;;;;5036562;28;20364;-76
2022/10/05 05:48:45;;;;;;;3.47;1.83;;;10.90;99.90;;;;;;5037865;28;20385;-76
2022/10/05 05:51:23;;;;;;;4.30;2.30;;;11.00;99.90;;;;;;5038174;28;20024;-76
2022/10/05 05:53:59;;;;;;;2.60;1.95;;;11.10;99.90;;;;;;5038223;28;20116;-76
2022/10/05 05:56:33;;;;;;;3.53;1.90;;;11.20;99.90;;;;;;5037063;28;20111;-76
2022/10/05 05:59:05;;;;;;;4.10;1.98;;;11.30;99.90;;;;;;5037525;28;20037;-76
2022/10/05 06:02:02;;;;;;;3.38;2.15;;;11.30;99.90;;;;;;5036413;28;21200;-76
2022/10/05 06:04:37;;;;;;;4.32;2.05;;;11.40;99.90;;;;;;5037613;28;20091;-76
2022/10/05 06:07:04;;;;;;;2.53;2.08;;;11.50;99.90;;;;;;5035979;28;20066;-76
2022/10/05 06:09:44;;;;;;;2.63;1.80;;;11.40;99.90;;;;;;5037559;28;20035;-75
2022/10/05 06:12:30;;;;;;;3.08;1.92;;;11.50;99.90;;;;;;5037172;28;20037;-75
2022/10/05 06:15:10;;;;;;;4.05;1.92;;;11.60;99.90;;;;;;5036199;28;20025;-76
2022/10/05 06:17:42;;;;;;;4.13;2.15;;;11.60;99.90;;;;;;5035324;28;20147;-76
2022/10/05 06:20:39;;;;;;;3.15;2.05;;;11.60;99.90;;;;;;5035675;28;20384;-76
2022/10/05 06:23:24;;;;;;;2.35;2.00;;;11.70;99.90;;;;;;5036740;28;20380;-76
2022/10/05 06:26:10;;;;;;;6.28;2.45;;;11.80;99.90;;;;;;5037488;28;20028;-76
2022/10/05 06:28:35;;;;;;;8.38;2.15;;;11.90;99.90;;;;;;5036486;28;20021;-76
2022/10/05 06:31:17;;;;;;;3.47;2.10;;;12.00;99.90;;;;;;5035696;28;20098;-76
2022/10/05 06:33:52;;;;;;;2.05;1.75;;;12.00;99.90;;;;;;5036997;28;20033;-76
2022/10/05 06:36:38;;;;;;;4.13;2.30;;;12.00;99.90;;;;;;5036265;28;20029;-75
2022/10/05 06:39:25;;;;;;;3.47;2.05;;;12.10;99.90;;;;;;5037415;28;20307;-76
2022/10/05 06:42:26;;;;;;;3.38;2.13;;;12.20;99.90;;;;;;5038214;28;20049;-76
2022/10/05 06:45:08;;;;;;;4.80;2.08;;;12.30;99.90;;;;;;5034338;28;20481;-76
2022/10/05 06:47:50;;;;;;;5.32;2.03;;;12.30;99.90;;;;;;5036731;28;20093;-75
2022/10/05 06:50:36;;;;;;;3.95;2.08;;;12.40;99.90;;;;;;5035678;28;20032;-76
2022/10/05 06:53:26;;;;;;;4.38;2.25;;;12.40;99.90;;;;;;5039294;28;20029;-76
2022/10/05 06:56:18;;;;;;;4.60;2.05;;;12.60;99.90;;;;;;5046237;28;20037;-75
2022/10/05 06:58:56;;;;;;;3.22;2.08;;;12.70;99.90;;;;;;5039782;28;20125;-75
2022/10/05 07:01:42;;;;;;;3.72;2.08;;;12.70;99.90;;;;;;5040521;28;20238;-75
2022/10/05 07:04:23;;;;;;;6.03;2.40;;;12.50;99.90;;;;;;5040195;28;20033;-76
2022/10/05 07:07:12;;;;;;;3.42;1.98;;;12.50;99.90;;;;;;5034676;28;20446;-77
2022/10/05 07:10:06;;;;;;;3.55;2.20;;;12.40;99.90;;;;;;5028776;28;20038;-76
2022/10/05 07:12:57;;;;;;;5.60;2.40;;;12.40;99.90;;;;;;5035726;28;20040;-79
2022/10/05 07:15:39;;;;;;;4.07;2.20;;;12.50;99.90;;;;;;5038596;28;20033;-77
2022/10/05 07:18:10;;;;;;;3.25;1.77;;;12.60;99.90;;;;;;5026557;28;20116;-77
2022/10/05 07:20:56;;;;;;;2.65;1.95;;;12.60;99.90;;;;;;5033912;28;20028;-77
2022/10/05 07:23:58;;;;;;;6.35;2.25;;;12.60;99.90;;;;;;5031946;28;20083;-76
2022/10/05 07:26:39;;;;;;;5.30;2.38;;;12.80;99.90;;;;;;5042954;28;20403;-77
2022/10/05 07:29:18;;;;;;;6.00;2.22;;;12.80;99.90;;;;;;5029425;28;20735;-76
2022/10/05 07:31:54;;;;;;;5.38;2.60;;;12.90;99.90;;;;;;5034000;28;20124;-76
2022/10/05 07:34:56;;;;;;;2.85;1.73;;;13.10;99.90;;;;;;5033642;28;20041;-76
2022/10/05 07:37:54;;;;;;;3.00;1.90;;;13.30;99.90;;;;;;5037597;28;20522;-76
2022/10/05 07:40:40;;;;;;;5.97;2.13;;;13.50;99.90;;;;;;5056993;28;20229;-76
2022/10/05 07:43:28;;;;;;;5.18;2.22;;;13.70;99.90;;;;;;5039900;28;20396;-77
2022/10/05 07:46:14;;;;;;;6.22;2.47;;;13.80;99.90;;;;;;5031214;28;20636;-76
2022/10/05 07:49:02;;;;;;;7.30;2.15;;;13.80;99.90;;;;;;5036958;28;20042;-76
2022/10/05 07:51:44;;;;;;;3.63;2.22;;;13.70;99.90;;;;;;5035056;28;20096;-76
2022/10/05 07:54:09;;;;;;;3.72;2.47;;;13.80;99.90;;;;;;5046280;28;20434;-77
2022/10/05 07:56:43;;;;;;;3.42;2.03;;;13.90;99.90;;;;;;5037928;28;20030;-77
2022/10/05 07:59:23;;;;;;;3.13;2.10;;;14.20;99.90;;;;;;5030150;28;20037;-77
2022/10/05 08:01:58;;;;;;;4.75;2.30;;;14.40;99.90;;;;;;5040799;28;20033;-76
2022/10/05 08:04:29;;;;;;;2.88;1.95;;;14.30;99.90;;;;;;5039079;28;20022;-76
2022/10/05 08:07:00;;;;;;;3.03;1.70;;;14.50;99.90;;;;;;5027874;28;20053;-77
2022/10/05 08:09:53;;;;;;;2.67;1.80;;;14.70;99.90;;;;;;5032237;28;20040;-76
2022/10/05 08:12:22;;;;;;;3.00;1.83;;;14.90;99.90;;;;;;5034178;28;20025;-77
2022/10/05 08:14:58;;;;;;;3.22;1.73;;;14.90;99.90;;;;;;5041329;28;20399;-77
2022/10/05 08:17:31;;;;;;;2.70;1.70;;;14.90;99.90;;;;;;5038802;28;20028;-77
2022/10/05 08:20:05;;;;;;;3.72;1.70;;;15.00;99.90;;;;;;5027724;28;20040;-77
2022/10/05 08:22:39;;;;;;;2.90;1.90;;;14.90;99.90;;;;;;5030891;28;20117;-77
2022/10/05 08:25:15;;;;;;;4.20;2.42;;;14.80;99.90;;;;;;5027461;28;20045;-76
2022/10/05 08:27:51;;;;;;;3.63;1.90;;;14.80;99.90;;;;;;5038809;28;20115;-79
2022/10/05 08:30:16;;;;;;;3.05;1.80;;;14.70;99.90;;;;;;5044545;28;20041;-77
2022/10/05 08:33:08;;;;;;;3.22;1.80;;;14.70;99.90;;;;;;5048654;28;20048;-78
2022/10/05 08:35:36;;;;;;;;;;;14.40;99.90;;;;;;5050235;28;20705;-77
2022/10/05 08:38:08;;;;;;;3.40;2.22;;;14.40;99.90;;;;;;5051138;28;19909;-77
2022/10/05 08:40:45;;;;;;;6.60;1.70;;;14.50;99.90;;;;;;5048657;28;20029;-79
2022/10/05 08:43:11;;;;;;;4.78;2.50;;;14.70;99.90;;;;;;5044958;28;20045;-78
2022/10/05 08:46:01;;;;;;;2.88;1.58;;;14.90;99.90;;;;;;5046306;28;20092;-79
2022/10/05 08:48:50;;;;;;;3.85;1.77;;;15.20;99.90;;;;;;5050849;28;20036;-78
2022/10/05 08:51:37;;;;;;;3.08;2.00;;;15.30;99.90;;;;;;5034829;28;20021;-78
2022/10/05 08:54:14;;;;;;;3.00;1.85;;;15.60;99.90;;;;;;5039738;28;20043;-78
2022/10/05 08:57:02;;;;;;;5.00;1.98;;;15.80;99.90;;;;;;5041659;28;20033;-78
2022/10/05 09:00:04;;;;;;;3.92;2.03;;;15.90;99.90;;;;;;5045622;28;20029;-78
2022/10/05 09:03:03;;;;;;;3.92;1.98;;;15.90;99.90;;;;;;5032766;28;20044;-77
2022/10/05 09:05:43;;;;;;;2.35;1.80;;;16.00;99.90;;;;;;5045576;28;20023;-78
2022/10/05 09:08:29;;;;;;;3.57;1.60;;;16.00;99.90;;;;;;5041855;28;20759;-77
2022/10/05 09:11:09;;;;;;;3.17;1.90;;;16.20;99.90;;;;;;5045834;28;20025;-78
2022/10/05 09:14:25;;;;;;;3.15;1.52;;;16.10;99.90;;;;;;5033819;28;20079;-78
2022/10/05 09:17:20;;;;;;;3.20;1.80;;;16.00;99.90;;;;;;4993518;28;20377;-78
2022/10/05 09:20:15;;;;;;;3.40;1.75;;;16.10;99.90;;;;;;4983795;28;20038;-79
2022/10/05 09:23:09;;;;;;;4.00;1.80;;;16.00;99.90;;;;;;5033542;28;20091;-78
2022/10/05 09:25:58;;;;;;;4.43;2.25;;;16.00;99.90;;;;;;5040954;28;20026;-79
2022/10/05 09:28:31;;;;;;;3.00;1.77;;;16.00;99.90;;;;;;5041826;28;20108;-79
2022/10/05 09:31:09;;;;;;;3.30;2.00;;;16.20;99.90;;;;;;5049806;28;20075;-78
2022/10/05 09:34:24;;;;;;;5.30;1.92;;;16.40;99.90;;;;;;5049392;28;20036;-79
2022/10/05 09:37:19;;;;;;;1.88;1.40;;;16.50;99.90;;;;;;5049555;28;20025;-78
2022/10/05 09:40:13;;;;;;;4.03;1.75;;;16.60;99.90;;;;;;5043619;28;20136;-78
2022/10/05 09:43:13;;;;;;;2.50;1.60;;;16.80;99.60;;;;;;5040179;28;20025;-79
2022/10/05 09:46:12;;;;;;;9.38;2.08;;;17.00;99.50;;;;;;5029346;28;20079;-77
2022/10/05 09:49:24;;;;;;;4.43;2.50;;;17.10;98.60;;;;;;5029759;28;20472;-79
2022/10/05 09:52:10;;;;;;;5.13;1.80;;;17.20;97.70;;;;;;5029682;28;20535;-78
2022/10/05 09:54:45;;;;;;;2.15;1.80;;;17.20;97.70;;;;;;5029367;28;20484;-79
2022/10/05 09:57:22;;;;;;;2.45;1.80;;;17.40;97.70;;;;;;5032748;28;20404;-78
2022/10/05 10:00:19;;;;;;;3.55;2.08;;;17.60;97.50;;;;;;5029479;28;20460;-80
2022/10/05 10:03:23;;;;;;;4.05;2.10;;;17.20;98.10;;;;;;5042122;28;20464;-78
2022/10/05 10:06:04;;;;;;;2.47;1.60;;;17.00;98.90;;;;;;5029354;28;20438;-78
2022/10/05 10:08:59;;;;;;;3.38;1.90;;;16.70;99.80;;;;;;5028945;28;20423;-79
2022/10/05 10:11:53;;;;;;;2.47;1.70;;;16.60;99.70;;;;;;5037259;28;20040;-79
2022/10/05 10:14:29;;;;;;;2.72;1.75;;;16.60;99.90;;;;;;5048928;28;20364;-79
2022/10/05 10:17:22;;;;;;;3.33;2.00;;;16.70;99.90;;;;;;5048658;28;20040;-80
2022/10/05 10:20:21;;;;;;;4.82;2.05;;;16.60;99.60;;;;;;5048624;28;20032;-79
2022/10/05 10:23:13;;;;;;;2.65;1.75;;;17.00;99.40;;;;;;5048160;28;20036;-78
2022/10/05 10:25:52;;;;;;;2.58;1.88;;;17.60;97.50;;;;;;5048975;28;20033;-78
2022/10/05 10:28:34;;;;;;;2.50;2.00;;;17.80;96.40;;;;;;5048487;28;20452;-79
2022/10/05 10:31:16;;;;;;;2.20;1.75;;;18.40;96.30;;;;;;5035676;28;20187;-78
2022/10/05 10:33:58;;;;;;;3.40;1.88;;;19.10;93.10;;;;;;5043340;28;20029;-79
2022/10/05 10:36:57;;;;;;;7.38;2.20;;;19.20;92.60;;;;;;5031610;28;20072;-79
2022/10/05 10:39:50;;;;;;;3.50;2.13;;;19.20;91.40;;;;;;5029570;28;20033;-78
2022/10/05 10:42:58;;;;;;;3.83;1.70;;;18.90;91.50;;;;;;5037005;28;20388;-79
2022/10/05 10:45:46;;;;;;;2.63;1.90;;;18.70;92.20;;;;;;5038202;28;20744;-79
2022/10/05 10:48:18;;;;;;;9.18;2.03;;;18.30;93.60;;;;;;5040760;28;20045;-78
2022/10/05 10:51:09;;;;;;;2.83;1.90;;;18.00;94.30;;;;;;5033268;28;20029;-78
2022/10/05 10:53:52;;;;;;;2.90;1.83;;;18.50;93.60;;;;;;5047224;28;20037;-79
2022/10/05 10:56:25;;;;;;;3.40;2.30;;;18.80;93.60;;;;;;5048079;28;20035;-78
2022/10/05 10:59:13;;;;;;;3.72;2.40;;;21.40;90.20;;;;;;5048045;28;20545;-78
2022/10/05 11:02:09;;;;;;;2.28;1.80;;;24.70;71.70;;;;;;5046097;28;20025;-77
2022/10/05 11:05:00;;;;;;;5.07;2.00;;;22.90;70.10;;;;;;5040021;28;20108;-79
2022/10/05 11:07:42;;;;;;;4.47;2.20;;;20.30;80.20;;;;;;5027905;28;20506;-79
2022/10/05 11:10:08;;;;;;;2.95;2.03;;;21.70;79.00;;;;;;5028001;28;20033;-79
2022/10/05 11:13:11;;;;;;;3.33;1.88;;;26.80;63.70;;;;;;5033624;28;20064;-77
2022/10/05 11:16:10;;;;;;;3.03;1.80;;;30.50;52.70;;;;;;5045593;28;20447;-78
2022/10/05 11:19:14;;;;;;;3.83;2.03;;;31.40;47.20;;;;;;5044643;28;20025;-79
2022/10/05 11:22:18;;;;;;;6.05;2.40;;;29.70;48.90;;;;;;5045780;28;20040;-78
2022/10/05 11:25:05;;;;;;;2.47;1.90;;;30.10;48.20;;;;;;5047982;28;20480;-78
2022/10/05 11:27:36;;;;;;;3.42;2.33;;;30.70;46.20;;;;;;5047725;28;20041;-80
2022/10/05 11:30:21;;;;;;;2.10;1.60;;;30.10;47.60;;;;;;5047397;28;20031;-79
2022/10/05 11:33:24;;;;;;;4.88;2.10;;;33.40;44.20;;;;;;5046897;28;20479;-79
2022/10/05 11:36:18;;;;;;;2.20;2.00;;;33.90;41.10;;;;;;5035973;28;20041;-79
2022/10/05 11:39:15;;;;;;;1.85;1.63;;;29.50;47.50;;;;;;5028970;28;20021;-78
2022/10/05 11:42:12;;;;;;;3.65;2.28;;;26.60;53.40;;;;;;5027909;28;20029;-79
2022/10/05 11:45:14;;;;;;;2.88;1.90;;;27.30;53.40;;;;;;5043435;28;20041;-79
2022/10/05 11:48:07;;;;;;;4.68;1.90;;;29.10;49.90;;;;;;5045700;28;20017;-78
2022/10/05 11:50:51;;;;;;;3.47;1.83;;;33.60;44.30;;;;;;5048211;28;20060;-79
2022/10/05 11:53:31;;;;;;;4.78;1.73;;;30.30;46.70;;;;;;5037735;28;20033;-80
2022/10/05 11:56:17;;;;;;;1.98;1.75;;;27.70;50.70;;;;;;5028086;28;20033;-79
2022/10/05 11:59:10;;;;;;;3.65;2.22;;;24.50;58.00;;;;;;5041180;28;20451;-77
2022/10/05 12:02:06;;;;;;;3.92;2.33;;;22.40;65.40;;;;;;5035363;28;20037;-78
2022/10/05 12:04:39;;;;;;;4.70;2.22;;;21.60;70.50;;;;;;5047476;28;20028;-78
2022/10/05 12:07:30;;;;;;;4.10;2.30;;;21.40;72.10;;;;;;5049784;28;20033;-79
2022/10/05 12:10:31;;;;;;;2.58;2.00;;;21.00;73.80;;;;;;5037540;28;20664;-79
2022/10/05 12:13:21;;;;;;;4.30;2.45;;;24.30;64.40;;;;;;5031435;28;20029;-79
2022/10/05 12:15:55;;;;;;;3.67;2.20;;;27.60;56.50;;;;;;5031062;28;20541;-79
2022/10/05 12:18:29;;;;;;;2.90;2.00;;;25.80;58.20;;;;;;5037089;28;20025;-78
2022/10/05 12:21:06;;;;;;;2.60;2.00;;;24.20;63.30;;;;;;5050467;28;20033;-79
2022/10/05 12:24:03;;;;;;;7.68;2.00;;;23.70;65.70;;;;;;5046463;28;20029;-77
2022/10/05 12:26:44;;;;;;;4.28;2.13;;;25.90;60.60;;;;;;5047679;28;20104;-78
2022/10/05 12:29:20;;;;;;;5.03;2.13;;;27.40;56.60;;;;;;5031393;28;20116;-79
2022/10/05 12:31:59;;;;;;;2.47;1.85;;;26.10;58.10;;;;;;5030885;28;20065;-79
2022/10/05 12:34:33;;;;;;;2.15;1.88;;;24.80;62.40;;;;;;5030755;28;20033;-80
2022/10/05 12:37:36;;;;;;;6.80;2.20;;;25.20;59.70;;;;;;5049125;28;20044;-78
2022/10/05 12:40:07;;;;;;;3.60;1.80;;;27.20;56.60;;;;;;5049707;28;20241;-79
2022/10/05 12:43:01;;;;;;;2.40;1.75;;;26.90;56.10;;;;;;5036170;28;20044;-78
2022/10/05 12:45:54;;;;;;;2.55;1.67;;;25.60;58.40;;;;;;5030783;28;20112;-79
2022/10/05 12:48:38;;;;;;;2.30;1.75;;;28.30;55.80;;;;;;5040755;28;20029;-79
2022/10/05 12:51:21;;;;;;;2.20;2.00;;;31.40;48.00;;;;;;5050950;28;20021;-78
2022/10/05 12:54:05;;;;;;;2.50;1.80;;;32.00;46.80;;;;;;5050160;28;20798;-79
2022/10/05 12:56:41;;;;;;;3.10;1.70;;;31.40;46.50;;;;;;5050309;28;20020;-79
2022/10/05 12:59:33;;;;;;;2.60;2.05;;;29.50;49.00;;;;;;5043943;28;20567;-79
2022/10/05 13:02:11;;;;;;;2.83;1.55;;;27.30;53.50;;;;;;5030223;28;20415;-79
2022/10/05 13:04:56;;;;;;;5.20;1.80;;;27.00;54.60;;;;;;5034456;28;20048;-81
2022/10/05 13:07:43;;;;;;;2.25;1.70;;;30.70;49.10;;;;;;5042281;28;20017;-82
2022/10/05 13:10:23;;;;;;;2.42;1.63;;;33.50;43.40;;;;;;5043075;28;20039;-81
2022/10/05 13:12:59;;;;;;;2.17;1.92;;;35.40;41.30;;;;;;5043659;28;20037;-79
2022/10/05 13:15:35;;;;;;;1.60;1.48;;;33.70;40.90;;;;;;5034735;28;20029;-78
2022/10/05 13:18:28;;;;;;;1.70;1.60;;;32.30;42.90;;;;;;5035716;28;20029;-76
2022/10/05 13:21:17;;;;;;;2.10;1.65;;;34.50;40.40;;;;;;5035139;28;20026;-78
2022/10/05 13:24:03;;;;;;;2.42;1.77;;;37.30;37.80;;;;;;5039438;28;20572;-78
2022/10/05 13:26:42;;;;;;;1.75;1.30;;;36.70;36.90;;;;;;5045846;28;20033;-78
2022/10/05 13:29:33;;;;;;;1.95;1.60;;;38.20;38.00;;;;;;5047588;28;20771;-76
2022/10/05 13:32:04;;;;;;;3.13;1.58;;;39.40;34.70;;;;;;5048566;28;20428;-80
2022/10/05 13:34:30;;;;;;;;;;;37.90;35.40;;;;;;5043410;28;20456;-75
2022/10/05 13:37:09;;;;;;;2.90;1.73;;;34.60;38.10;;;;;;5048028;28;19916;-76
2022/10/05 13:39:42;;;;;;;1.45;1.35;;;34.90;38.70;;;;;;5034149;28;20032;-75
2022/10/05 13:42:34;;;;;;;1.45;1.30;;;35.50;37.80;;;;;;5038213;28;20483;-76
2022/10/05 13:45:03;;;;;;;;;;;35.70;37.90;;;;;;5048929;28;20100;-76
2022/10/05 13:48:00;;;;;;;2.20;1.70;;;35.50;38.10;;;;;;5046239;28;19912;-79
2022/10/05 13:50:33;;;;;;;4.35;1.55;;;35.50;36.80;;;;;;5040471;28;20035;-76
2022/10/05 13:53:07;;;;;;;4.03;1.35;;;33.70;40.00;;;;;;5045124;28;20424;-78
2022/10/05 13:55:53;;;;;;;1.83;1.40;;;32.80;40.10;;;;;;5028043;28;20052;-76
2022/10/05 13:58:35;;;;;;;1.40;1.30;;;34.20;40.50;;;;;;5045791;28;20145;-77
2022/10/05 14:01:07;;;;;;;1.65;1.42;;;35.10;38.40;;;;;;5030083;28;20095;-78
2022/10/05 14:03:35;;;;;;;1.33;1.23;;;36.40;37.40;;;;;;5038867;28;20036;-78
2022/10/05 14:06:10;;;;;;;2.35;1.60;;;34.50;38.80;;;;;;5037898;28;20021;-77
2022/10/05 14:08:56;;;;;;;1.42;1.33;;;35.90;38.20;;;;;;5042085;28;20041;-76